createdAt,value
2023-01-28T00:01:28.074Z,2.60
2023-01-28T00:03:55.162Z,2.55
2023-01-28T00:06:22.183Z,2.45
2023-01-28T00:08:49.188Z,2.53
2023-01-28T00:11:16.010Z,2.61
2023-01-28T00:13:43.434Z,2.62
2023-01-28T00:16:10.737Z,2.55
2023-01-28T00:18:37.968Z,2.62
2023-01-28T00:21:10.012Z,2.56
2023-01-28T00:23:38.338Z,2.62
2023-01-28T00:26:06.572Z,2.64
2023-01-28T00:28:33.537Z,2.58
2023-01-28T00:31:06.113Z,2.50
2023-01-28T00:33:33.323Z,2.53
2023-01-28T00:36:01.143Z,2.55
2023-01-28T00:38:28.575Z,2.59
2023-01-28T00:40:55.837Z,2.52
2023-01-28T00:43:22.971Z,2.56
2023-01-28T00:45:50.427Z,2.59
2023-01-28T00:48:17.292Z,2.57
2023-01-28T00:50:44.368Z,2.55
2023-01-28T00:53:11.402Z,2.45
2023-01-28T00:55:39.400Z,2.40
2023-01-28T00:58:06.227Z,2.46
2023-01-28T01:00:33.296Z,2.43
2023-01-28T01:03:00.155Z,2.32
2023-01-28T01:05:27.246Z,2.39
2023-01-28T01:07:54.075Z,2.44
2023-01-28T01:10:21.258Z,2.50
2023-01-28T01:12:49.099Z,2.52
2023-01-28T01:15:17.246Z,2.50
2023-01-28T01:17:45.317Z,2.42
2023-01-28T01:20:13.795Z,2.45
2023-01-28T01:22:40.662Z,2.52
2023-01-28T01:25:07.759Z,2.49
2023-01-28T01:27:34.515Z,2.54
2023-01-28T01:30:01.283Z,2.53
2023-01-28T01:32:31.933Z,2.50
2023-01-28T01:34:58.796Z,2.23
2023-01-28T01:37:25.697Z,2.32
2023-01-28T01:39:52.627Z,2.34
2023-01-28T01:42:19.906Z,2.16
2023-01-28T01:44:53.005Z,2.28
2023-01-28T01:47:21.399Z,2.22
2023-01-28T01:49:48.560Z,2.24
2023-01-28T01:52:18.128Z,2.18
2023-01-28T01:54:46.264Z,2.25
2023-01-28T01:57:16.133Z,2.34
2023-01-28T01:59:43.931Z,2.31
2023-01-28T02:02:11.834Z,2.25
2023-01-28T02:04:44.906Z,2.30
2023-01-28T02:07:13.243Z,2.30
2023-01-28T02:09:41.512Z,2.29
2023-01-28T02:12:16.975Z,1.94
2023-01-28T02:15:03.693Z,1.91
2023-01-28T02:17:30.896Z,1.91
2023-01-28T02:19:57.970Z,2.15
2023-01-28T02:22:30.696Z,2.25
2023-01-28T02:25:16.786Z,2.29
2023-01-28T02:28:02.570Z,2.31
2023-01-28T02:30:30.915Z,2.28
2023-01-28T02:33:01.143Z,2.28
2023-01-28T02:35:30.796Z,2.29
2023-01-28T02:38:04.184Z,2.33
2023-01-28T02:40:34.313Z,2.30
2023-01-28T02:43:01.113Z,2.29
2023-01-28T02:45:50.124Z,2.25
2023-01-28T02:48:18.356Z,2.29
2023-01-28T02:51:07.638Z,2.26
2023-01-28T02:53:41.011Z,2.31
2023-01-28T02:56:14.668Z,2.21
2023-01-28T02:58:52.776Z,2.17
2023-01-28T03:01:25.101Z,2.21
2023-01-28T03:03:54.813Z,2.25
2023-01-28T03:06:27.125Z,2.27
2023-01-28T03:09:14.529Z,2.18
2023-01-28T03:12:05.176Z,2.04
2023-01-28T03:14:51.367Z,1.98
2023-01-28T03:17:55.506Z,1.98
2023-01-28T03:20:43.961Z,2.13
2023-01-28T03:23:31.012Z,2.05
2023-01-28T03:26:17.752Z,2.22
2023-01-28T03:29:05.093Z,2.27
2023-01-28T03:31:51.308Z,2.22
2023-01-28T03:34:37.868Z,2.10
2023-01-28T03:37:04.751Z,2.06
2023-01-28T03:39:31.738Z,2.11
2023-01-28T03:41:59.750Z,2.14
2023-01-28T03:44:45.218Z,2.14
2023-01-28T03:47:12.481Z,2.16
2023-01-28T03:49:45.518Z,2.02
2023-01-28T03:52:13.272Z,2.16
2023-01-28T03:54:40.087Z,2.15
2023-01-28T03:57:06.827Z,1.98
2023-01-28T03:59:34.065Z,2.10
2023-01-28T04:02:03.154Z,2.11
2023-01-28T04:04:32.788Z,2.05
2023-01-28T04:06:59.937Z,1.93
2023-01-28T04:09:26.717Z,1.96
2023-01-28T04:11:56.068Z,1.90
2023-01-28T04:14:22.890Z,2.04
2023-01-28T04:16:49.767Z,2.06
2023-01-28T04:19:16.868Z,2.15
2023-01-28T04:21:43.709Z,2.16
2023-01-28T04:24:10.586Z,2.22
2023-01-28T04:26:37.419Z,2.21
2023-01-28T04:29:04.358Z,2.17
2023-01-28T04:31:31.612Z,2.21
2023-01-28T04:33:58.567Z,2.20
2023-01-28T04:36:25.745Z,2.13
2023-01-28T04:38:52.871Z,2.16
2023-01-28T04:41:20.022Z,2.17
2023-01-28T04:43:49.197Z,2.08
2023-01-28T04:46:16.612Z,2.15
2023-01-28T04:48:43.461Z,2.06
2023-01-28T04:51:10.319Z,2.01
2023-01-28T04:53:37.127Z,2.01
2023-01-28T04:56:04.091Z,2.04
2023-01-28T04:58:31.064Z,1.91
2023-01-28T05:00:58.336Z,1.97
2023-01-28T05:03:25.255Z,1.88
2023-01-28T05:05:52.089Z,1.93
2023-01-28T05:08:18.869Z,1.95
2023-01-28T05:10:45.822Z,2.00
2023-01-28T05:13:12.736Z,1.98
2023-01-28T05:15:39.545Z,2.03
2023-01-28T05:18:06.384Z,1.71
2023-01-28T05:20:33.176Z,1.73
2023-01-28T05:23:00.036Z,1.49
2023-01-28T05:25:27.717Z,1.67
2023-01-28T05:27:54.635Z,1.73
2023-01-28T05:30:21.872Z,1.79
2023-01-28T05:32:48.998Z,1.80
2023-01-28T05:35:16.167Z,1.78
2023-01-28T05:37:43.412Z,1.79
2023-01-28T05:40:10.563Z,1.85
2023-01-28T05:42:37.386Z,1.89
2023-01-28T05:45:04.319Z,1.89
2023-01-28T05:47:31.242Z,1.81
2023-01-28T05:49:58.056Z,1.69
2023-01-28T05:52:24.883Z,1.52
2023-01-28T05:54:52.018Z,1.54
2023-01-28T05:57:18.830Z,1.57
2023-01-28T05:59:45.743Z,1.62
2023-01-28T06:02:12.565Z,1.63
2023-01-28T06:04:39.393Z,1.64
2023-01-28T06:07:06.491Z,1.68
2023-01-28T06:09:33.236Z,1.57
2023-01-28T06:12:00.726Z,1.56
2023-01-28T06:14:27.508Z,1.61
2023-01-28T06:16:54.524Z,1.61
2023-01-28T06:19:21.312Z,1.53
2023-01-28T06:21:48.216Z,1.54
2023-01-28T06:24:15.126Z,1.48
2023-01-28T06:26:41.967Z,1.42
2023-01-28T06:29:09.268Z,1.41
2023-01-28T06:31:37.515Z,1.40
2023-01-28T06:34:04.733Z,1.30
2023-01-28T06:36:31.613Z,1.17
2023-01-28T06:38:58.806Z,1.07
2023-01-28T06:41:25.637Z,1.12
2023-01-28T06:43:52.693Z,1.15
2023-01-28T06:46:19.611Z,1.14
2023-01-28T06:48:46.432Z,1.12
2023-01-28T06:51:13.272Z,1.16
2023-01-28T06:53:40.042Z,1.14
2023-01-28T06:56:07.107Z,1.00
2023-01-28T06:58:34.352Z,1.05
2023-01-28T07:01:01.461Z,1.13
2023-01-28T07:03:28.637Z,1.02
2023-01-28T07:05:55.363Z,1.07
2023-01-28T07:08:22.222Z,1.13
2023-01-28T07:10:49.679Z,1.17
2023-01-28T07:13:16.494Z,1.19
2023-01-28T07:15:43.335Z,1.11
2023-01-28T07:18:10.497Z,1.07
2023-01-28T07:20:37.685Z,1.17
2023-01-28T07:23:04.616Z,1.09
2023-01-28T07:25:31.880Z,0.99
2023-01-28T07:27:58.980Z,0.84
2023-01-28T07:30:26.210Z,0.99
2023-01-28T07:32:56.700Z,1.02
2023-01-28T07:35:24.047Z,1.05
2023-01-28T07:37:54.487Z,1.01
2023-01-28T07:40:21.408Z,1.11
2023-01-28T07:42:48.255Z,1.19
2023-01-28T07:45:15.591Z,1.14
2023-01-28T07:47:42.919Z,1.27
2023-01-28T07:50:10.476Z,1.30
2023-01-28T07:52:44.304Z,1.22
2023-01-28T07:55:12.423Z,1.29
2023-01-28T07:57:47.647Z,1.39
2023-01-28T08:00:15.066Z,1.45
2023-01-28T08:02:44.937Z,1.51
2023-01-28T08:05:11.974Z,1.44
2023-01-28T08:07:39.132Z,1.41
2023-01-28T08:10:06.229Z,1.51
2023-01-28T08:12:33.008Z,1.54
2023-01-28T08:14:59.865Z,1.51
2023-01-28T08:17:27.559Z,1.47
2023-01-28T08:19:54.329Z,1.58
2023-01-28T08:22:24.779Z,1.58
2023-01-28T08:24:51.842Z,1.52
2023-01-28T08:27:19.002Z,1.60
2023-01-28T08:29:45.759Z,1.63
2023-01-28T08:32:12.882Z,1.57
2023-01-28T08:34:39.633Z,1.63
2023-01-28T08:37:06.466Z,1.59
2023-01-28T08:39:33.243Z,1.54
2023-01-28T08:42:00.110Z,1.54
2023-01-28T08:44:26.869Z,1.53
2023-01-28T08:46:53.635Z,1.41
2023-01-28T08:49:22.239Z,1.46
2023-01-28T08:51:49.215Z,1.54
2023-01-28T08:54:16.431Z,1.49
2023-01-28T08:56:44.888Z,1.50
2023-01-28T08:59:12.227Z,1.52
2023-01-28T09:01:39.207Z,1.48
2023-01-28T09:04:06.215Z,1.49
2023-01-28T09:06:33.208Z,1.45
2023-01-28T09:09:00.176Z,1.71
2023-01-28T09:11:27.750Z,1.82
2023-01-28T09:13:54.656Z,1.72
2023-01-28T09:16:21.506Z,1.77
2023-01-28T09:18:48.533Z,1.87
2023-01-28T09:21:15.500Z,1.83
2023-01-28T09:23:42.369Z,1.83
2023-01-28T09:26:09.348Z,1.93
2023-01-28T09:28:36.548Z,1.97
2023-01-28T09:31:04.923Z,2.03
2023-01-28T09:33:32.354Z,1.91
2023-01-28T09:36:03.096Z,2.08
2023-01-28T09:38:30.443Z,2.25
2023-01-28T09:40:57.544Z,2.18
2023-01-28T09:43:30.482Z,2.13
2023-01-28T09:45:58.720Z,2.10
2023-01-28T09:48:33.135Z,1.93
2023-01-28T09:51:00.619Z,2.19
2023-01-28T09:53:35.576Z,2.27
2023-01-28T09:56:04.441Z,2.30
2023-01-28T09:58:31.675Z,2.29
2023-01-28T10:01:10.834Z,2.22
2023-01-28T10:03:48.042Z,2.18
2023-01-28T10:06:20.163Z,2.19
2023-01-28T10:08:55.859Z,2.36
2023-01-28T10:11:22.691Z,2.46
2023-01-28T10:13:55.591Z,2.38
2023-01-28T10:16:22.379Z,2.44
2023-01-28T10:19:00.923Z,2.41
2023-01-28T10:21:37.044Z,2.55
2023-01-28T10:24:06.635Z,2.59
2023-01-28T10:26:35.971Z,2.61
2023-01-28T10:29:13.974Z,2.64
2023-01-28T10:31:44.030Z,2.66
2023-01-28T10:34:11.206Z,2.82
2023-01-28T10:36:38.206Z,2.94
2023-01-28T10:39:06.692Z,2.88
2023-01-28T10:41:34.705Z,2.95
2023-01-28T10:44:01.681Z,2.89
2023-01-28T10:46:29.931Z,2.67
2023-01-28T10:48:59.964Z,2.64
2023-01-28T10:51:30.946Z,2.62
2023-01-28T10:53:57.821Z,2.70
2023-01-28T10:56:26.660Z,2.96
2023-01-28T10:58:58.815Z,3.15
2023-01-28T11:01:25.772Z,3.45
2023-01-28T11:03:56.484Z,3.67
2023-01-28T11:06:24.579Z,3.77
2023-01-28T11:08:51.760Z,4.01
2023-01-28T11:11:24.626Z,4.41
2023-01-28T11:13:53.421Z,4.49
2023-01-28T11:16:20.892Z,4.60
2023-01-28T11:18:52.192Z,4.47
2023-01-28T11:21:24.074Z,4.37
2023-01-28T11:23:53.393Z,4.32
2023-01-28T11:26:28.345Z,3.98
2023-01-28T11:28:55.488Z,3.73
2023-01-28T11:31:26.481Z,3.98
2023-01-28T11:34:00.692Z,4.14
2023-01-28T11:36:28.685Z,4.07
2023-01-28T11:38:56.663Z,4.05
2023-01-28T11:41:27.196Z,3.82
2023-01-28T11:43:55.379Z,3.50
2023-01-28T11:46:22.399Z,3.17
2023-01-28T11:49:07.767Z,2.91
2023-01-28T11:51:35.156Z,3.03
2023-01-28T11:54:10.106Z,3.21
2023-01-28T11:56:44.666Z,3.43
2023-01-28T11:59:23.314Z,3.78
2023-01-28T12:01:59.423Z,4.19
2023-01-28T12:04:32.323Z,4.40
2023-01-28T12:07:14.471Z,4.57
2023-01-28T12:09:44.579Z,4.55
2023-01-28T12:12:11.395Z,4.90
2023-01-28T12:14:38.191Z,5.23
2023-01-28T12:17:25.385Z,5.35
2023-01-28T12:20:02.125Z,5.57
2023-01-28T12:22:40.309Z,5.45
2023-01-28T12:25:26.123Z,5.66
2023-01-28T12:28:01.062Z,5.51
2023-01-28T12:30:34.525Z,5.66
2023-01-28T12:33:01.364Z,5.95
2023-01-28T12:35:34.061Z,5.40
2023-01-28T12:38:09.135Z,5.68
2023-01-28T12:40:48.043Z,6.05
2023-01-28T12:43:15.196Z,6.23
2023-01-28T12:45:52.027Z,6.54
2023-01-28T12:48:28.536Z,6.30
2023-01-28T12:51:00.436Z,6.10
2023-01-28T12:53:39.788Z,6.18
2023-01-28T12:56:18.527Z,6.08
2023-01-28T12:58:57.355Z,6.30
2023-01-28T13:01:30.071Z,6.42
2023-01-28T13:04:20.167Z,6.09
2023-01-28T13:06:46.959Z,6.48
2023-01-28T13:09:24.610Z,6.51
2023-01-28T13:11:52.864Z,-138.62
2023-01-28T13:14:22.283Z,-138.62
2023-01-28T13:16:49.181Z,-138.62
2023-01-28T13:19:18.767Z,6.51
2023-01-28T13:21:49.456Z,6.69
2023-01-28T13:24:16.590Z,-138.62
2023-01-28T13:26:47.834Z,-138.62
2023-01-28T13:29:14.638Z,-138.62
2023-01-28T13:31:43.082Z,-138.62
2023-01-28T13:34:36.646Z,-138.62
2023-01-28T13:37:05.800Z,-138.62
2023-01-28T13:39:34.588Z,6.97
2023-01-28T13:42:10.532Z,-138.62
2023-01-28T13:44:37.619Z,-138.62
2023-01-28T13:47:07.577Z,-138.62
2023-01-28T13:49:45.089Z,-138.62
2023-01-28T13:52:12.148Z,-138.62
2023-01-28T13:54:44.701Z,-138.62
2023-01-28T13:57:37.797Z,-138.62
2023-01-28T14:00:11.728Z,-138.62
2023-01-28T14:03:02.693Z,-138.62
2023-01-28T14:05:49.383Z,-138.62
2023-01-28T14:08:22.321Z,-138.62
2023-01-28T14:10:55.705Z,-138.62
2023-01-28T14:13:26.033Z,-138.62
2023-01-28T14:16:19.749Z,-138.62
2023-01-28T14:18:47.753Z,-138.62
2023-01-28T14:21:25.246Z,6.97
2023-01-28T14:23:54.310Z,7.10
2023-01-28T14:26:45.809Z,6.89
2023-01-28T14:29:16.897Z,7.37
2023-01-28T14:31:46.775Z,7.64
2023-01-28T14:34:22.773Z,7.86
2023-01-28T14:36:53.142Z,7.90
2023-01-28T14:39:21.589Z,7.79
2023-01-28T14:41:49.737Z,7.18
2023-01-28T14:44:33.302Z,6.59
2023-01-28T14:47:19.114Z,6.14
2023-01-28T14:49:46.024Z,6.05
2023-01-28T14:52:33.464Z,5.53
2023-01-28T14:55:09.489Z,-138.62
2023-01-28T14:57:39.902Z,5.07
2023-01-28T15:00:22.429Z,5.08
2023-01-28T15:02:50.865Z,4.94
2023-01-28T15:05:30.383Z,4.77
2023-01-28T15:08:02.644Z,4.85
2023-01-28T15:10:36.048Z,4.74
2023-01-28T15:13:11.334Z,4.55
2023-01-28T15:15:39.460Z,4.39
2023-01-28T15:18:12.799Z,4.11
2023-01-28T15:20:43.678Z,4.16
2023-01-28T15:23:14.423Z,3.99
2023-01-28T15:25:41.370Z,3.80
2023-01-28T15:28:17.257Z,3.78
2023-01-28T15:30:49.397Z,3.55
2023-01-28T15:33:18.598Z,3.42
2023-01-28T15:35:49.211Z,3.36
2023-01-28T15:38:17.902Z,3.50
2023-01-28T15:40:48.112Z,3.55
2023-01-28T15:43:20.169Z,3.40
2023-01-28T15:45:48.849Z,3.50
2023-01-28T15:48:18.494Z,3.55
2023-01-28T15:50:45.660Z,3.45
2023-01-28T15:53:16.446Z,3.33
2023-01-28T15:55:46.612Z,3.35
2023-01-28T15:58:18.757Z,3.36
2023-01-28T16:00:46.039Z,3.26
2023-01-28T16:03:25.006Z,3.17
2023-01-28T16:05:56.509Z,3.16
2023-01-28T16:08:36.395Z,3.01
2023-01-28T16:11:03.950Z,3.03
2023-01-28T16:13:32.828Z,3.03
2023-01-28T16:16:01.239Z,3.00
2023-01-28T16:18:42.578Z,2.97
2023-01-28T16:21:12.944Z,2.96
2023-01-28T16:23:39.962Z,2.92
2023-01-28T16:26:21.321Z,2.91
2023-01-28T16:28:50.954Z,2.89
2023-01-28T16:31:18.644Z,2.83
2023-01-28T16:33:46.205Z,2.81
2023-01-28T16:36:16.765Z,2.81
2023-01-28T16:38:43.945Z,2.80
2023-01-28T16:41:29.715Z,2.81
2023-01-28T16:43:56.905Z,2.77
2023-01-28T16:46:26.844Z,2.78
2023-01-28T16:48:53.826Z,2.78
2023-01-28T16:51:21.534Z,2.78
2023-01-28T16:53:49.877Z,2.78
2023-01-28T16:56:35.716Z,2.79
2023-01-28T16:59:05.152Z,2.74
2023-01-28T17:01:32.329Z,2.68
2023-01-28T17:03:59.200Z,2.67
2023-01-28T17:06:26.788Z,2.66
2023-01-28T17:08:54.025Z,2.55
2023-01-28T17:11:21.042Z,2.51
2023-01-28T17:13:48.395Z,2.43
2023-01-28T17:16:15.370Z,2.49
2023-01-28T17:18:46.877Z,2.50
2023-01-28T17:21:14.967Z,2.46
2023-01-28T17:23:41.762Z,2.48
2023-01-28T17:26:10.615Z,2.42
2023-01-28T17:28:37.617Z,2.45
2023-01-28T17:31:14.217Z,2.49
2023-01-28T17:33:42.604Z,2.50
2023-01-28T17:36:10.085Z,2.49
2023-01-28T17:38:37.391Z,2.50
2023-01-28T17:41:08.731Z,2.53
2023-01-28T17:43:35.822Z,2.40
2023-01-28T17:46:10.391Z,2.43
2023-01-28T17:48:37.314Z,2.45
2023-01-28T17:51:07.571Z,2.46
2023-01-28T17:53:34.767Z,2.41
2023-01-28T17:56:03.479Z,2.37
2023-01-28T17:58:30.477Z,2.32
2023-01-28T18:01:00.798Z,2.33
2023-01-28T18:03:28.139Z,2.32
2023-01-28T18:06:00.336Z,2.33
2023-01-28T18:08:29.458Z,2.26
2023-01-28T18:10:56.489Z,2.19
2023-01-28T18:13:25.616Z,2.21
2023-01-28T18:15:53.951Z,2.25
2023-01-28T18:18:24.023Z,2.21
2023-01-28T18:21:01.379Z,2.26
2023-01-28T18:23:28.228Z,2.16
2023-01-28T18:26:04.029Z,2.22
2023-01-28T18:28:33.683Z,2.26
2023-01-28T18:31:07.420Z,2.19
2023-01-28T18:33:34.335Z,2.17
2023-01-28T18:36:01.992Z,2.23
2023-01-28T18:38:28.895Z,2.22
2023-01-28T18:40:56.092Z,2.22
2023-01-28T18:43:26.964Z,2.23
2023-01-28T18:45:54.426Z,2.24
2023-01-28T18:48:22.897Z,2.19
2023-01-28T18:50:53.637Z,2.23
2023-01-28T18:53:21.817Z,2.20
2023-01-28T18:55:49.096Z,2.09
2023-01-28T18:58:16.218Z,2.11
2023-01-28T19:00:43.141Z,2.10
2023-01-28T19:03:10.087Z,2.12
2023-01-28T19:05:38.001Z,2.10
2023-01-28T19:08:05.918Z,2.17
2023-01-28T19:10:32.818Z,2.17
2023-01-28T19:12:59.693Z,2.10
2023-01-28T19:15:26.623Z,2.09
2023-01-28T19:17:53.545Z,2.03
2023-01-28T19:20:20.364Z,2.03
2023-01-28T19:22:47.260Z,2.01
2023-01-28T19:25:14.461Z,1.98
2023-01-28T19:27:41.629Z,1.95
2023-01-28T19:30:09.065Z,2.00
2023-01-28T19:32:35.890Z,2.02
2023-01-28T19:35:02.879Z,2.06
2023-01-28T19:37:29.682Z,2.05
2023-01-28T19:39:56.546Z,2.01
2023-01-28T19:42:23.909Z,2.00
2023-01-28T19:44:51.532Z,2.00
2023-01-28T19:47:18.353Z,2.01
2023-01-28T19:49:45.186Z,2.03
2023-01-28T19:52:12.059Z,2.04
2023-01-28T19:54:39.211Z,2.01
2023-01-28T19:57:06.136Z,1.97
2023-01-28T19:59:33.044Z,2.05
2023-01-28T20:02:00.108Z,2.06
2023-01-28T20:04:27.735Z,2.05
2023-01-28T20:06:54.547Z,2.11
2023-01-28T20:09:22.111Z,2.10
2023-01-28T20:11:49.233Z,2.11
2023-01-28T20:14:18.053Z,2.12
2023-01-28T20:16:45.160Z,2.19
2023-01-28T20:19:14.546Z,2.17
2023-01-28T20:21:41.563Z,2.15
2023-01-28T20:24:08.710Z,2.20
2023-01-28T20:26:37.324Z,2.09
2023-01-28T20:29:06.095Z,2.18
2023-01-28T20:31:33.616Z,2.21
2023-01-28T20:34:01.060Z,2.25
2023-01-28T20:36:27.853Z,2.20
2023-01-28T20:38:54.708Z,2.23
2023-01-28T20:41:23.195Z,2.26
2023-01-28T20:43:50.623Z,2.29
2023-01-28T20:46:25.533Z,2.33
2023-01-28T20:48:53.704Z,2.33
2023-01-28T20:51:39.103Z,2.36
2023-01-28T20:54:06.347Z,2.37
2023-01-28T20:56:33.543Z,2.36
2023-01-28T20:59:02.096Z,2.39
2023-01-28T21:01:33.913Z,2.38
2023-01-28T21:04:01.254Z,2.37
2023-01-28T21:06:28.755Z,2.34
2023-01-28T21:08:57.206Z,2.42
2023-01-28T21:11:25.513Z,2.45
2023-01-28T21:13:52.716Z,2.42
2023-01-28T21:16:21.402Z,2.42
2023-01-28T21:18:48.399Z,2.43
2023-01-28T21:21:22.496Z,2.43
2023-01-28T21:23:51.045Z,2.49
2023-01-28T21:26:18.044Z,2.52
2023-01-28T21:28:45.255Z,2.53
2023-01-28T21:31:19.995Z,2.55
2023-01-28T21:33:50.807Z,2.47
2023-01-28T21:36:18.211Z,2.51
2023-01-28T21:38:50.762Z,2.48
2023-01-28T21:41:17.744Z,2.46
2023-01-28T21:43:44.677Z,2.49
2023-01-28T21:46:11.769Z,2.50
2023-01-28T21:48:38.643Z,2.52
2023-01-28T21:51:24.789Z,2.51
2023-01-28T21:53:51.756Z,2.54
2023-01-28T21:56:19.275Z,2.56
2023-01-28T21:59:06.310Z,2.59
2023-01-28T22:01:33.647Z,2.51
2023-01-28T22:04:00.717Z,2.53
2023-01-28T22:06:27.943Z,2.53
2023-01-28T22:08:54.991Z,2.57
2023-01-28T22:11:22.020Z,2.58
2023-01-28T22:13:48.982Z,2.63
2023-01-28T22:16:16.544Z,2.62
2023-01-28T22:18:43.511Z,2.62
2023-01-28T22:21:11.894Z,2.65
2023-01-28T22:23:39.098Z,2.60
2023-01-28T22:26:06.113Z,2.62
2023-01-28T22:28:33.456Z,2.63
2023-01-28T22:31:08.572Z,2.62
2023-01-28T22:33:35.804Z,2.55
2023-01-28T22:36:07.403Z,2.60
2023-01-28T22:38:36.907Z,2.66
2023-01-28T22:41:07.717Z,2.66
2023-01-28T22:43:35.158Z,2.65
2023-01-28T22:46:03.653Z,2.64
2023-01-28T22:48:31.097Z,2.61
2023-01-28T22:51:07.957Z,2.59
2023-01-28T22:53:34.838Z,2.59
2023-01-28T22:56:02.693Z,2.59
2023-01-28T22:58:31.488Z,2.60
2023-01-28T23:00:59.157Z,2.59
2023-01-28T23:03:26.597Z,2.62
2023-01-28T23:05:57.647Z,2.59
2023-01-28T23:08:24.481Z,2.53
2023-01-28T23:10:51.356Z,2.54
2023-01-28T23:13:19.340Z,2.57
2023-01-28T23:16:05.318Z,2.52
2023-01-28T23:18:50.996Z,2.50
2023-01-28T23:21:36.408Z,2.52
2023-01-28T23:24:19.179Z,2.51
2023-01-28T23:26:51.111Z,2.55
2023-01-28T23:29:19.201Z,2.53
2023-01-28T23:31:47.391Z,2.53
2023-01-28T23:34:15.211Z,2.61
2023-01-28T23:36:42.167Z,2.59
2023-01-28T23:39:09.423Z,2.59
2023-01-28T23:41:36.396Z,2.64
2023-01-28T23:44:03.482Z,2.69
2023-01-28T23:46:39.027Z,2.72
2023-01-28T23:49:06.742Z,2.74
2023-01-28T23:51:33.634Z,2.74
2023-01-28T23:54:00.759Z,2.70
2023-01-28T23:56:27.558Z,2.71
2023-01-28T23:58:55.960Z,2.69
